Time;durP1;ratioP1;P1;durP2;ratioP2;P2;SDS_P1;SDS_P2;PMS_P1;PMS_P2;Temp;Humidity;BMP_temperature;BMP_pressure;BME280_temperature;BME280_humidity;BME280_pressure;Samples;Min_cycle;Max_cycle;Signal;HPM_P1;HPM_P2
2023/10/09 00:01:52;;;;;;;6.30;4.35;;;16.10;99.90;;;;;;948608;147;27357;-78
2023/10/09 00:04:20;;;;;;;5.20;3.80;;;16.10;99.90;;;;;;958665;146;27292;-78
2023/10/09 00:06:46;;;;;;;4.70;3.98;;;16.10;99.90;;;;;;962794;146;27448;-79
2023/10/09 00:11:44;;;;;;;6.97;4.10;;;16.20;99.90;;;;;;939393;146;27507;-81
2023/10/09 00:14:10;;;;;;;4.70;3.75;;;16.20;99.90;;;;;;962360;146;27354;-80
2023/10/09 00:16:43;;;;;;;5.85;4.17;;;16.20;99.90;;;;;;964188;146;27450;-81
2023/10/09 00:19:30;;;;;;;9.73;4.37;;;16.20;99.90;;;;;;962532;146;27396;-81
2023/10/09 00:21:48;;;;;;;4.62;4.10;;;16.20;99.90;;;;;;961372;148;27291;-77
2023/10/09 00:24:23;;;;;;;5.20;4.05;;;16.20;99.90;;;;;;960720;148;27327;-80
2023/10/09 00:26:47;;;;;;;4.65;4.15;;;16.20;99.90;;;;;;958784;148;27761;-80
2023/10/09 00:29:22;;;;;;;5.42;3.77;;;16.20;99.90;;;;;;950433;148;27459;-79
2023/10/09 00:32:03;;;;;;;4.75;3.80;;;16.20;99.90;;;;;;965982;145;27312;-79
2023/10/09 00:34:22;;;;;;;7.03;4.20;;;16.20;99.90;;;;;;949201;148;27263;-80
2023/10/09 00:36:50;;;;;;;4.75;3.85;;;16.20;99.90;;;;;;963407;146;27932;-79
2023/10/09 00:39:40;;;;;;;5.28;4.17;;;16.10;99.90;;;;;;965913;145;27424;-77
2023/10/09 00:41:49;;;;;;;4.90;4.10;;;16.10;99.90;;;;;;948373;148;27281;-81
2023/10/09 00:44:15;;;;;;;6.30;4.83;;;16.10;99.90;;;;;;964244;146;27663;-80
2023/10/09 00:46:47;;;;;;;7.05;4.60;;;16.00;99.90;;;;;;941782;149;27459;-80
2023/10/09 00:49:11;;;;;;;5.62;4.03;;;16.00;99.90;;;;;;963166;147;27468;-75
2023/10/09 00:51:38;;;;;;;5.45;4.08;;;15.90;99.90;;;;;;964464;147;27957;-77
2023/10/09 00:54:07;;;;;;;4.90;4.17;;;15.90;99.90;;;;;;961715;148;27360;-81
2023/10/09 00:56:43;;;;;;;5.55;4.22;;;15.90;99.90;;;;;;963869;148;27443;-80
2023/10/09 00:59:13;;;;;;;6.12;4.53;;;15.90;99.90;;;;;;963646;146;27475;-80
2023/10/09 01:01:35;;;;;;;4.75;3.95;;;15.90;99.90;;;;;;963559;148;27463;-80
2023/10/09 01:04:11;;;;;;;5.15;4.20;;;15.80;99.90;;;;;;963770;147;27435;-81
2023/10/09 01:06:43;;;;;;;6.33;4.22;;;15.80;99.90;;;;;;963089;147;27275;-81
2023/10/09 01:09:09;;;;;;;4.83;4.33;;;15.80;99.90;;;;;;963285;148;27412;-80
2023/10/09 01:11:34;;;;;;;5.58;4.30;;;15.80;99.90;;;;;;962841;148;27342;-80
2023/10/09 01:16:35;;;;;;;5.97;4.50;;;15.80;99.90;;;;;;947100;148;27397;-82
2023/10/09 01:19:12;;;;;;;6.78;4.08;;;15.90;99.90;;;;;;947875;148;27420;-80
2023/10/09 01:21:31;;;;;;;4.67;4.28;;;15.80;99.90;;;;;;944691;148;27339;-81
2023/10/09 01:24:07;;;;;;;5.12;4.35;;;15.90;99.90;;;;;;947014;148;27417;-80
2023/10/09 01:26:46;;;;;;;5.08;3.95;;;15.80;99.90;;;;;;945925;148;27476;-76
2023/10/09 01:29:14;;;;;;;6.47;4.37;;;15.80;99.90;;;;;;947018;149;27984;-79
2023/10/09 01:31:43;;;;;;;5.47;3.98;;;15.80;99.90;;;;;;945628;148;27449;-75
2023/10/09 01:34:09;;;;;;;4.97;4.53;;;15.80;99.90;;;;;;945532;149;27375;-80
2023/10/09 01:36:32;;;;;;;6.90;4.83;;;15.80;99.90;;;;;;947017;148;27874;-81
2023/10/09 01:39:09;;;;;;;5.08;4.22;;;15.80;99.90;;;;;;947337;148;27401;-78
2023/10/09 01:41:27;;;;;;;5.87;4.53;;;15.80;99.90;;;;;;944514;148;27288;-81
2023/10/09 01:44:00;;;;;;;4.80;4.30;;;15.80;99.90;;;;;;947040;148;27800;-79
2023/10/09 01:46:22;;;;;;;6.45;4.37;;;15.70;99.90;;;;;;947182;148;27417;-80
2023/10/09 01:48:47;;;;;;;5.12;4.53;;;15.70;99.90;;;;;;947076;148;27280;-80
2023/10/09 01:51:17;;;;;;;4.78;4.05;;;15.60;99.90;;;;;;946936;148;27912;-81
2023/10/09 01:53:41;;;;;;;5.45;4.67;;;15.60;99.90;;;;;;946800;148;27332;-79
2023/10/09 01:56:14;;;;;;;5.35;4.85;;;15.60;99.90;;;;;;947513;148;27401;-81
2023/10/09 01:58:37;;;;;;;6.03;4.50;;;15.50;99.90;;;;;;944701;149;27381;-80
2023/10/09 02:01:06;;;;;;;7.85;4.90;;;15.50;99.90;;;;;;947503;148;27473;-80
2023/10/09 02:03:30;;;;;;;4.55;4.08;;;15.50;99.90;;;;;;946826;149;27272;-80
2023/10/09 02:06:04;;;;;;;7.67;4.83;;;15.40;99.90;;;;;;946801;149;27901;-77
2023/10/09 02:08:35;;;;;;;5.40;4.47;;;15.40;99.90;;;;;;946938;149;27867;-78
2023/10/09 02:10:57;;;;;;;5.60;4.70;;;15.40;99.90;;;;;;946339;149;27427;-80
2023/10/09 02:13:30;;;;;;;5.60;4.67;;;15.30;99.90;;;;;;947153;149;27399;-80
2023/10/09 02:15:58;;;;;;;4.80;4.40;;;15.30;99.90;;;;;;947302;149;27387;-79
2023/10/09 02:21:12;;;;;;;8.00;5.35;;;15.20;99.90;;;;;;941759;149;27449;-74
2023/10/09 02:23:38;;;;;;;7.28;4.65;;;15.20;99.90;;;;;;940094;149;27335;-74
2023/10/09 02:26:02;;;;;;;6.50;4.80;;;15.20;99.90;;;;;;939613;148;27391;-74
2023/10/09 02:28:24;;;;;;;5.55;4.72;;;15.20;99.90;;;;;;943091;149;27428;-75
2023/10/09 02:30:51;;;;;;;5.97;4.55;;;15.20;99.90;;;;;;939566;149;27513;-74
2023/10/09 02:33:27;;;;;;;5.50;4.28;;;15.20;99.90;;;;;;961939;146;27311;-74
2023/10/09 02:35:51;;;;;;;4.87;4.05;;;15.20;99.90;;;;;;944488;149;27440;-74
2023/10/09 02:38:14;;;;;;;5.90;4.30;;;15.20;99.90;;;;;;942204;149;27858;-77
2023/10/09 02:41:20;;;;;;;6.47;4.37;;;15.20;99.90;;;;;;942457;148;27371;-73
2023/10/09 02:43:17;;;;;;;5.70;4.50;;;15.10;99.90;;;;;;945316;148;27820;-73
2023/10/09 02:45:38;;;;;;;5.72;4.70;;;15.10;99.90;;;;;;965063;145;27629;-74
2023/10/09 02:48:08;;;;;;;6.10;4.60;;;15.10;99.90;;;;;;949901;147;27454;-74
2023/10/09 02:50:29;;;;;;;5.22;4.30;;;15.10;99.90;;;;;;957106;149;27303;-74
2023/10/09 02:53:01;;;;;;;4.97;4.45;;;15.10;99.90;;;;;;957262;148;27284;-76
2023/10/09 02:55:25;;;;;;;6.00;5.17;;;15.10;99.90;;;;;;961766;146;27343;-74
2023/10/09 02:57:56;;;;;;;6.92;4.30;;;15.10;99.90;;;;;;958049;146;27325;-74
2023/10/09 03:00:28;;;;;;;5.22;4.72;;;15.10;99.90;;;;;;958762;148;27321;-74
2023/10/09 03:02:49;;;;;;;6.22;4.45;;;15.10;99.90;;;;;;940384;148;28041;-73
2023/10/09 03:05:12;;;;;;;5.78;4.50;;;15.10;99.90;;;;;;959348;148;27305;-74
2023/10/09 03:07:42;;;;;;;6.78;4.30;;;15.10;99.90;;;;;;963299;146;27365;-75
2023/10/09 03:10:09;;;;;;;5.62;4.72;;;15.10;99.90;;;;;;963566;146;27485;-75
2023/10/09 03:12:35;;;;;;;6.35;4.55;;;15.10;99.90;;;;;;940401;148;27456;-74
2023/10/09 03:15:05;;;;;;;4.78;4.25;;;15.10;99.90;;;;;;950232;148;27897;-74
2023/10/09 03:17:28;;;;;;;7.50;4.45;;;15.00;99.90;;;;;;941771;149;27305;-74
2023/10/09 03:19:55;;;;;;;7.67;5.28;;;15.00;99.90;;;;;;962388;148;28404;-75
2023/10/09 03:22:21;;;;;;;5.97;4.80;;;15.00;99.90;;;;;;963127;148;27343;-76
2023/10/09 03:24:49;;;;;;;4.90;4.12;;;14.90;99.90;;;;;;963052;148;27255;-73
2023/10/09 03:27:15;;;;;;;5.28;4.20;;;14.90;99.90;;;;;;962131;147;27293;-74
2023/10/09 03:29:41;;;;;;;5.08;4.58;;;14.90;99.90;;;;;;960083;148;27357;-77
2023/10/09 03:32:08;;;;;;;6.17;4.47;;;14.80;99.90;;;;;;963012;146;27426;-77
2023/10/09 03:34:34;;;;;;;7.45;4.30;;;14.80;99.90;;;;;;961253;147;27338;-77
2023/10/09 03:37:21;;;;;;;4.80;3.52;;;14.80;99.90;;;;;;963113;148;27415;-77
2023/10/09 03:39:38;;;;;;;5.05;4.65;;;14.70;99.90;;;;;;960175;148;27713;-76
2023/10/09 03:42:05;;;;;;;5.00;3.98;;;14.70;99.90;;;;;;963113;147;27321;-76
2023/10/09 03:44:30;;;;;;;4.55;4.15;;;14.70;99.90;;;;;;960818;148;27354;-76
2023/10/09 03:46:56;;;;;;;4.15;3.75;;;14.60;99.90;;;;;;961089;146;27347;-76
2023/10/09 03:49:26;;;;;;;8.10;4.08;;;14.60;99.90;;;;;;958359;148;27248;-76
2023/10/09 03:51:51;;;;;;;4.30;3.90;;;14.60;99.90;;;;;;961618;146;27327;-76
2023/10/09 03:54:22;;;;;;;4.37;3.92;;;14.60;99.90;;;;;;943276;149;27441;-76
2023/10/09 03:56:45;;;;;;;5.37;3.98;;;14.60;99.90;;;;;;940700;148;27346;-76
2023/10/09 03:59:12;;;;;;;4.53;4.08;;;14.60;99.90;;;;;;956609;148;27403;-76
2023/10/09 04:01:38;;;;;;;5.72;4.00;;;14.70;99.90;;;;;;962904;146;27310;-76
2023/10/09 04:04:06;;;;;;;4.85;4.35;;;14.70;99.90;;;;;;962457;146;27307;-76
2023/10/09 04:06:34;;;;;;;5.35;4.55;;;14.70;99.90;;;;;;960777;146;27404;-76
2023/10/09 04:08:58;;;;;;;5.00;4.20;;;14.80;99.90;;;;;;947689;147;27358;-76
2023/10/09 04:11:24;;;;;;;6.20;4.37;;;14.80;99.90;;;;;;944358;147;27337;-76
2023/10/09 04:13:52;;;;;;;5.67;4.53;;;14.90;99.90;;;;;;946240;149;27471;-76
2023/10/09 04:16:51;;;;;;;8.63;4.62;;;14.90;99.90;;;;;;946726;147;27436;-76
2023/10/09 04:18:47;;;;;;;4.20;3.80;;;14.90;99.90;;;;;;924690;149;27389;-76
2023/10/09 04:21:18;;;;;;;5.30;4.67;;;14.90;99.90;;;;;;939880;150;27362;-76
2023/10/09 04:26:29;;;;;;;4.30;3.90;;;15.00;99.90;;;;;;919841;150;27372;-77
2023/10/09 04:28:54;;;;;;;4.30;3.87;;;15.00;99.90;;;;;;941855;149;27407;-76
2023/10/09 04:31:31;;;;;;;6.20;4.62;;;15.00;99.90;;;;;;939154;149;27339;-76
2023/10/09 04:34:48;;;;;;;5.85;4.62;;;15.00;99.90;;;;;;943287;148;27317;-76
2023/10/09 04:36:26;;;;;;;4.55;4.08;;;15.00;99.90;;;;;;939250;148;27437;-78
2023/10/09 04:44:35;;;;;;;5.35;4.40;;;15.00;99.90;;;;;;944015;148;27339;-78
2023/10/09 04:52:18;;;;;;;5.90;5.00;;;14.80;99.90;;;;;;936899;147;27659;-76
2023/10/09 04:55:02;;;;;;;6.20;4.15;;;14.80;99.90;;;;;;935422;150;28530;-76
2023/10/09 04:57:17;;;;;;;5.67;4.45;;;14.80;99.90;;;;;;942631;147;27363;-77
2023/10/09 04:59:45;;;;;;;5.83;4.62;;;14.80;99.90;;;;;;938329;149;27307;-77
2023/10/09 05:02:05;;;;;;;6.33;4.47;;;14.70;99.90;;;;;;936878;149;27485;-77
2023/10/09 05:04:40;;;;;;;6.15;4.50;;;14.70;99.90;;;;;;934108;149;27405;-77
2023/10/09 05:07:22;;;;;;;6.00;4.22;;;14.70;99.90;;;;;;947472;146;27521;-77
2023/10/09 05:09:55;;;;;;;5.20;4.67;;;14.60;99.90;;;;;;941773;149;27426;-77
2023/10/09 05:12:09;;;;;;;5.70;4.55;;;14.60;99.90;;;;;;939263;149;27316;-77
2023/10/09 05:14:38;;;;;;;5.55;4.60;;;14.60;99.90;;;;;;962401;146;27315;-77
2023/10/09 05:16:54;;;;;;;4.80;4.20;;;14.60;99.90;;;;;;957939;148;27357;-77
2023/10/09 05:19:41;;;;;;;7.67;5.40;;;14.60;99.90;;;;;;945365;148;27362;-77
2023/10/09 05:22:04;;;;;;;5.10;4.58;;;14.60;99.90;;;;;;944693;148;27382;-77
2023/10/09 05:24:28;;;;;;;6.22;5.00;;;14.60;99.90;;;;;;960721;146;27319;-77
2023/10/09 05:26:52;;;;;;;5.85;4.35;;;14.60;99.90;;;;;;960844;146;27346;-77
2023/10/09 05:37:25;;;;;;;5.08;4.17;;;14.60;99.90;;;;;;942863;149;27509;-77
2023/10/09 05:42:57;;;;;;;5.67;4.50;;;14.70;99.90;;;;;;946887;148;27470;-77
2023/10/09 06:06:01;;;;;;;8.23;4.83;;;14.90;99.90;;;;;;963097;146;27445;-83
2023/10/09 06:08:24;;;;;;;5.47;4.42;;;14.90;99.90;;;;;;961393;145;27376;-82
2023/10/09 06:10:47;;;;;;;6.00;3.90;;;14.90;99.90;;;;;;943718;149;27398;-81
2023/10/09 06:13:37;;;;;;;6.28;4.60;;;15.00;99.90;;;;;;963100;146;27411;-77
2023/10/09 06:16:09;;;;;;;4.65;4.25;;;15.00;99.90;;;;;;960970;146;27360;-77
2023/10/09 06:18:34;;;;;;;6.10;4.17;;;15.00;99.90;;;;;;954866;147;27467;-82
2023/10/09 06:21:10;;;;;;;7.65;4.42;;;15.10;99.90;;;;;;958639;148;27329;-79
2023/10/09 06:24:16;;;;;;;5.28;3.87;;;15.10;99.90;;;;;;954741;148;27447;-79
2023/10/09 06:26:23;;;;;;;5.53;4.40;;;15.10;99.90;;;;;;948231;146;27377;-79
2023/10/09 06:28:35;;;;;;;6.05;4.42;;;15.20;99.90;;;;;;957570;148;27411;-77
2023/10/09 06:31:27;;;;;;;5.37;4.00;;;15.20;99.90;;;;;;954777;148;27286;-79
2023/10/09 06:33:57;;;;;;;6.42;4.28;;;15.30;99.90;;;;;;941730;148;27361;-79
2023/10/09 06:36:08;;;;;;;7.55;5.25;;;15.30;99.90;;;;;;955661;148;27280;-79
2023/10/09 06:38:33;;;;;;;5.78;4.00;;;15.40;99.90;;;;;;959673;148;27313;-77
2023/10/09 06:46:52;;;;;;;5.67;4.20;;;15.60;99.90;;;;;;943647;148;27369;-80
2023/10/09 06:58:57;;;;;;;6.47;4.50;;;15.90;99.90;;;;;;946888;149;27382;-77
2023/10/09 07:03:59;;;;;;;6.95;4.87;;;16.10;99.90;;;;;;961559;145;27393;-77
2023/10/09 07:06:24;;;;;;;5.70;4.78;;;16.20;99.90;;;;;;945671;149;27348;-77
2023/10/09 07:16:57;;;;;;;4.33;3.87;;;16.60;99.90;;;;;;944539;149;27441;-76
2023/10/09 07:22:29;;;;;;;6.08;5.17;;;16.80;99.90;;;;;;944360;149;27456;-78
2023/10/09 07:24:43;;;;;;;5.75;4.65;;;17.00;99.90;;;;;;940415;149;27344;-78
2023/10/09 07:27:11;;;;;;;5.40;4.53;;;17.30;99.90;;;;;;934455;147;27483;-78
2023/10/09 07:29:47;;;;;;;5.22;4.65;;;17.60;99.90;;;;;;949314;147;27331;-78
2023/10/09 07:31:58;;;;;;;4.20;3.72;;;18.00;99.90;;;;;;948157;147;27400;-76
2023/10/09 07:37:09;;;;;;;4.45;3.83;;;18.70;99.90;;;;;;949343;147;27484;-76
2023/10/09 07:39:36;;;;;;;6.20;4.40;;;19.10;99.90;;;;;;950897;147;27450;-76
2023/10/09 07:42:15;;;;;;;5.78;4.03;;;19.30;99.90;;;;;;950231;147;27270;-76
2023/10/09 07:44:36;;;;;;;4.42;3.77;;;19.40;99.90;;;;;;948060;147;27448;-75
2023/10/09 07:49:51;;;;;;;6.08;4.17;;;19.60;99.90;;;;;;951037;147;27323;-81
2023/10/09 07:52:12;;;;;;;6.22;4.33;;;19.70;99.90;;;;;;924808;150;27329;-77
2023/10/09 07:54:49;;;;;;;5.33;4.05;;;19.70;99.90;;;;;;946624;149;27348;-77
2023/10/09 07:57:18;;;;;;;4.55;3.83;;;19.70;99.90;;;;;;942364;149;27462;-77
2023/10/09 08:02:32;;;;;;;5.67;4.05;;;19.70;99.90;;;;;;944462;148;28436;-77
2023/10/09 08:05:04;;;;;;;5.42;3.95;;;19.60;99.90;;;;;;943880;149;27792;-76
2023/10/09 08:07:34;;;;;;;6.25;4.35;;;19.60;99.90;;;;;;942771;149;27352;-76
2023/10/09 08:12:57;;;;;;;5.12;4.40;;;19.40;99.90;;;;;;944894;149;27349;-76
2023/10/09 08:18:03;;;;;;;4.80;4.03;;;19.30;99.90;;;;;;944145;149;27960;-76
2023/10/09 08:20:26;;;;;;;6.90;4.00;;;19.30;99.90;;;;;;943733;149;27396;-76
2023/10/09 08:22:55;;;;;;;7.58;3.90;;;19.30;99.90;;;;;;936798;149;27418;-76
2023/10/09 08:25:36;;;;;;;5.47;4.17;;;19.20;99.90;;;;;;937094;151;27358;-76
2023/10/09 08:35:55;;;;;;;5.35;4.10;;;19.30;99.90;;;;;;933058;149;27459;-76
2023/10/09 08:38:26;;;;;;;4.70;3.83;;;19.30;99.90;;;;;;928254;149;28147;-76
2023/10/09 08:40:58;;;;;;;8.23;4.15;;;19.30;99.90;;;;;;930189;150;27963;-76
2023/10/09 08:43:19;;;;;;;4.80;3.77;;;19.30;99.90;;;;;;930527;150;27440;-76
2023/10/09 08:45:48;;;;;;;4.12;3.70;;;19.40;99.90;;;;;;930028;149;27389;-76
2023/10/09 08:48:26;;;;;;;6.45;4.05;;;19.40;99.90;;;;;;952448;147;27332;-76
2023/10/09 08:50:50;;;;;;;6.28;4.20;;;19.40;99.90;;;;;;931771;149;27477;-76
2023/10/09 08:53:16;;;;;;;4.65;4.20;;;19.40;99.90;;;;;;948065;146;27330;-76
2023/10/09 08:55:43;;;;;;;5.50;4.30;;;19.40;99.90;;;;;;948485;146;27319;-76
2023/10/09 09:00:48;;;;;;;6.80;4.03;;;19.40;99.90;;;;;;943303;147;27770;-76
2023/10/09 09:03:12;;;;;;;4.85;4.25;;;19.50;99.90;;;;;;942711;148;27398;-76
2023/10/09 09:05:38;;;;;;;6.37;4.37;;;19.50;99.90;;;;;;944503;148;27341;-76
2023/10/09 09:08:14;;;;;;;6.37;4.17;;;19.50;99.90;;;;;;942600;148;27449;-76
2023/10/09 09:10:46;;;;;;;6.30;4.22;;;19.60;99.90;;;;;;947525;146;27334;-76
2023/10/09 09:13:03;;;;;;;5.40;3.90;;;19.60;99.90;;;;;;967733;145;27328;-76
2023/10/09 09:15:27;;;;;;;4.20;3.80;;;19.70;99.90;;;;;;947446;148;27924;-76
2023/10/09 09:17:54;;;;;;;4.75;3.87;;;19.80;99.90;;;;;;957676;147;27952;-72
2023/10/09 09:20:31;;;;;;;5.05;3.87;;;19.90;99.90;;;;;;966149;145;27361;-73
2023/10/09 09:22:58;;;;;;;9.00;4.45;;;20.00;99.90;;;;;;969962;145;27290;-74
2023/10/09 09:25:24;;;;;;;8.58;4.62;;;20.20;99.90;;;;;;972421;145;27314;-73
2023/10/09 09:28:09;;;;;;;6.90;4.10;;;20.30;99.90;;;;;;973966;145;27381;-73
2023/10/09 09:30:24;;;;;;;6.20;4.03;;;20.50;99.90;;;;;;973745;145;27295;-74
2023/10/09 09:33:15;;;;;;;8.00;4.80;;;20.70;99.90;;;;;;969742;145;27645;-74
2023/10/09 09:35:19;;;;;;;7.37;4.22;;;20.90;99.90;;;;;;971580;145;27418;-75
2023/10/09 09:40:29;;;;;;;6.80;3.87;;;21.20;99.90;;;;;;969765;145;27319;-73
2023/10/09 09:42:48;;;;;;;5.85;3.90;;;21.30;99.90;;;;;;946470;148;27472;-76
2023/10/09 09:45:12;;;;;;;7.83;4.05;;;21.40;99.90;;;;;;945649;148;27454;-73
2023/10/09 09:47:39;;;;;;;4.83;4.08;;;21.40;99.90;;;;;;949328;148;27870;-73
2023/10/09 09:50:12;;;;;;;4.97;3.87;;;21.50;99.90;;;;;;966686;145;28256;-72
2023/10/09 09:52:41;;;;;;;5.37;3.45;;;21.50;99.90;;;;;;956043;147;27365;-73
2023/10/09 09:54:58;;;;;;;4.85;3.75;;;21.50;99.90;;;;;;964787;145;27334;-72
2023/10/09 09:57:28;;;;;;;5.75;3.80;;;21.50;99.90;;;;;;966495;145;27401;-76
2023/10/09 09:59:56;;;;;;;5.45;3.60;;;21.50;99.90;;;;;;950171;148;27374;-74
2023/10/09 10:02:21;;;;;;;4.50;3.12;;;21.50;99.90;;;;;;957677;147;27443;-74
2023/10/09 10:04:50;;;;;;;8.48;3.92;;;21.60;99.90;;;;;;954861;147;27300;-75
2023/10/09 10:07:16;;;;;;;4.28;3.75;;;21.60;99.90;;;;;;965342;145;27302;-74
2023/10/09 10:09:41;;;;;;;3.87;3.30;;;21.70;99.90;;;;;;971018;145;27431;-73
2023/10/09 10:12:10;;;;;;;5.00;3.55;;;21.70;99.90;;;;;;953274;147;27419;-72
2023/10/09 10:17:56;;;;;;;4.45;3.10;;;21.80;99.90;;;;;;932165;147;27937;-73
2023/10/09 10:22:51;;;;;;;6.78;4.25;;;22.00;99.90;;;;;;968858;145;27409;-75
2023/10/09 10:25:41;;;;;;;5.25;4.10;;;22.00;99.90;;;;;;949459;148;27848;-74
2023/10/09 10:28:39;;;;;;;4.20;3.70;;;22.00;99.90;;;;;;953783;147;27376;-75
2023/10/09 10:31:07;;;;;;;8.45;4.45;;;22.10;99.90;;;;;;966774;145;27351;-75
2023/10/09 10:33:56;;;;;;;6.35;3.65;;;22.10;99.90;;;;;;966969;145;27424;-76
2023/10/09 10:36:26;;;;;;;8.13;4.00;;;22.20;99.90;;;;;;967774;145;27795;-76
2023/10/09 10:41:54;;;;;;;3.80;3.20;;;22.20;99.00;;;;;;950491;148;27381;-76
2023/10/09 10:47:00;;;;;;;4.80;4.10;;;22.30;98.10;;;;;;970068;145;27447;-76
2023/10/09 10:49:36;;;;;;;7.47;3.87;;;22.30;98.90;;;;;;970758;145;27382;-76
2023/10/09 10:52:15;;;;;;;7.85;4.42;;;22.40;99.10;;;;;;951932;147;27353;-75
2023/10/09 10:56:59;;;;;;;6.30;3.60;;;22.50;99.60;;;;;;967357;145;27372;-76
2023/10/09 10:59:25;;;;;;;3.67;3.00;;;22.60;99.50;;;;;;967432;145;27327;-76
2023/10/09 11:02:37;;;;;;;6.33;3.62;;;22.70;99.80;;;;;;964071;148;27438;-76
2023/10/09 11:04:40;;;;;;;5.28;3.30;;;22.80;99.90;;;;;;949797;148;27439;-76
2023/10/09 11:06:50;;;;;;;5.25;3.20;;;22.90;99.90;;;;;;966577;145;27349;-76
2023/10/09 11:09:23;;;;;;;5.00;3.52;;;23.00;98.90;;;;;;950514;148;27385;-76
2023/10/09 11:11:55;;;;;;;5.85;3.17;;;23.10;98.40;;;;;;964709;147;27338;-76
2023/10/09 11:14:15;;;;;;;6.75;3.22;;;23.30;98.20;;;;;;965521;147;27407;-76
2023/10/09 11:16:42;;;;;;;4.80;3.37;;;23.50;97.30;;;;;;968074;147;27291;-76
2023/10/09 11:19:54;;;;;;;3.62;2.95;;;23.70;96.40;;;;;;968411;147;27349;-75
2023/10/09 11:21:41;;;;;;;4.42;3.00;;;23.90;94.90;;;;;;963429;147;27323;-76
2023/10/09 11:24:25;;;;;;;5.35;3.10;;;24.10;93.20;;;;;;969162;147;27335;-76
2023/10/09 11:26:55;;;;;;;4.87;3.35;;;24.20;92.00;;;;;;968736;147;27443;-76
2023/10/09 11:32:09;;;;;;;4.95;3.12;;;24.50;90.30;;;;;;969055;147;27393;-76
2023/10/09 11:34:35;;;;;;;4.72;2.95;;;24.70;89.20;;;;;;967812;147;27372;-76
2023/10/09 11:37:00;;;;;;;5.40;3.10;;;24.80;87.80;;;;;;968677;147;27343;-76
2023/10/09 11:39:37;;;;;;;7.00;3.42;;;24.90;86.50;;;;;;969057;147;27368;-73
2023/10/09 11:42:04;;;;;;;6.78;3.15;;;25.00;85.40;;;;;;968679;147;27360;-73
2023/10/09 11:44:34;;;;;;;5.12;2.98;;;25.10;84.40;;;;;;967881;147;27384;-75
2023/10/09 11:52:46;;;;;;;5.15;3.27;;;25.50;81.60;;;;;;967067;145;27349;-77
2023/10/09 11:55:16;;;;;;;4.35;2.62;;;25.50;80.50;;;;;;964291;147;27484;-75
2023/10/09 11:57:42;;;;;;;5.25;3.02;;;25.70;79.80;;;;;;967828;147;27271;-74
2023/10/09 12:00:28;;;;;;;4.15;3.02;;;25.70;78.90;;;;;;966270;147;27320;-73
2023/10/09 12:02:43;;;;;;;3.50;2.83;;;25.80;77.20;;;;;;965015;147;27337;-74
2023/10/09 12:05:07;;;;;;;6.10;3.65;;;25.90;76.10;;;;;;966389;147;27303;-73
2023/10/09 12:07:38;;;;;;;6.15;3.15;;;25.90;75.10;;;;;;967052;147;27240;-75
2023/10/09 12:10:00;;;;;;;4.75;3.10;;;26.00;74.50;;;;;;968403;147;27408;-76
2023/10/09 12:12:27;;;;;;;8.10;3.87;;;26.00;73.50;;;;;;959940;145;27771;-74
2023/10/09 12:14:54;;;;;;;6.03;3.40;;;26.00;72.90;;;;;;941737;149;27336;-74
2023/10/09 12:17:24;;;;;;;3.55;3.20;;;26.00;72.40;;;;;;949014;147;27442;-72
2023/10/09 12:19:48;;;;;;;4.05;3.20;;;26.10;72.10;;;;;;949223;147;27451;-73
2023/10/09 12:22:16;;;;;;;4.45;2.92;;;26.00;71.40;;;;;;952076;147;27300;-73
2023/10/09 12:24:43;;;;;;;4.42;2.92;;;26.10;71.00;;;;;;943645;149;27422;-75
2023/10/09 12:27:10;;;;;;;5.75;3.75;;;26.10;70.60;;;;;;951198;147;27306;-74
2023/10/09 12:29:33;;;;;;;5.17;3.47;;;26.10;70.30;;;;;;933983;149;27369;-73
2023/10/09 12:32:01;;;;;;;4.85;3.27;;;26.10;69.60;;;;;;932655;149;27327;-73
2023/10/09 12:34:26;;;;;;;4.92;3.65;;;26.10;69.20;;;;;;927263;150;27319;-75
2023/10/09 12:36:56;;;;;;;5.12;3.22;;;26.10;68.80;;;;;;945361;148;27813;-73
2023/10/09 12:39:22;;;;;;;6.33;3.83;;;26.10;68.50;;;;;;926437;150;27300;-75
2023/10/09 12:41:53;;;;;;;3.83;2.83;;;26.00;68.20;;;;;;951596;147;27336;-78
2023/10/09 12:44:18;;;;;;;6.30;3.50;;;26.00;68.20;;;;;;932874;149;27418;-74
2023/10/09 12:46:51;;;;;;;4.03;3.20;;;25.90;68.10;;;;;;931660;149;27345;-72
2023/10/09 12:49:10;;;;;;;3.72;2.95;;;25.90;67.70;;;;;;950940;147;27434;-76
2023/10/09 12:51:35;;;;;;;7.72;3.52;;;25.90;67.60;;;;;;953120;147;27308;-76
2023/10/09 12:54:02;;;;;;;6.40;3.33;;;25.80;67.30;;;;;;943963;149;27467;-76
2023/10/09 12:56:37;;;;;;;4.67;3.33;;;25.80;67.10;;;;;;949981;147;27328;-76
2023/10/09 12:59:01;;;;;;;7.12;3.40;;;25.70;66.90;;;;;;940699;149;27493;-76
2023/10/09 13:01:31;;;;;;;5.90;3.40;;;25.70;67.10;;;;;;950385;147;28308;-76
2023/10/09 13:03:54;;;;;;;4.80;3.05;;;25.60;67.20;;;;;;951466;147;27380;-76
2023/10/09 13:06:23;;;;;;;4.80;3.37;;;25.70;67.00;;;;;;943066;150;27905;-76
2023/10/09 13:08:47;;;;;;;4.00;3.40;;;25.60;66.80;;;;;;947900;146;27296;-76
2023/10/09 13:11:16;;;;;;;4.70;3.08;;;25.60;66.50;;;;;;930414;150;27355;-76
2023/10/09 13:13:41;;;;;;;5.30;3.08;;;25.60;66.40;;;;;;950477;147;27419;-76
2023/10/09 13:16:20;;;;;;;5.12;2.95;;;25.60;66.40;;;;;;950482;147;27412;-76
2023/10/09 13:18:39;;;;;;;3.95;2.92;;;25.60;66.50;;;;;;942265;148;27418;-76
2023/10/09 13:21:06;;;;;;;5.50;3.60;;;25.60;66.40;;;;;;938522;150;27309;-76
2023/10/09 13:23:46;;;;;;;4.80;3.47;;;25.60;66.20;;;;;;933830;150;27355;-76
2023/10/09 13:26:06;;;;;;;7.33;3.85;;;25.60;66.00;;;;;;931816;149;27342;-76
2023/10/09 13:28:26;;;;;;;5.62;3.45;;;25.60;66.60;;;;;;922319;150;27264;-76
2023/10/09 13:30:52;;;;;;;5.33;3.30;;;25.60;65.60;;;;;;932879;149;27423;-76
2023/10/09 13:33:21;;;;;;;7.47;3.72;;;25.60;66.20;;;;;;922397;150;27339;-76
2023/10/09 13:35:50;;;;;;;5.40;3.35;;;25.60;65.30;;;;;;934203;149;27293;-76
2023/10/09 13:38:15;;;;;;;6.00;3.65;;;25.60;65.20;;;;;;949057;147;27351;-76
2023/10/09 13:40:39;;;;;;;5.45;3.40;;;25.50;65.20;;;;;;948512;147;27296;-76
2023/10/09 13:43:06;;;;;;;7.03;3.50;;;25.50;65.10;;;;;;949536;147;27341;-76
2023/10/09 13:45:33;;;;;;;5.45;3.40;;;25.50;65.10;;;;;;949372;147;27420;-76
2023/10/09 13:47:58;;;;;;;7.47;3.58;;;25.50;65.00;;;;;;949639;147;27350;-76
2023/10/09 13:50:31;;;;;;;7.90;3.50;;;25.50;65.00;;;;;;934611;148;27332;-76
2023/10/09 13:52:54;;;;;;;7.35;3.15;;;25.40;65.70;;;;;;932504;150;27424;-76
2023/10/09 13:55:18;;;;;;;7.17;3.37;;;25.40;65.00;;;;;;931326;149;27443;-76
2023/10/09 13:57:47;;;;;;;7.12;3.10;;;25.40;65.10;;;;;;949312;147;27437;-75
2023/10/09 14:00:32;;;;;;;7.28;3.77;;;25.30;65.10;;;;;;951726;147;28887;-81
2023/10/09 14:02:46;;;;;;;4.30;3.55;;;25.30;65.30;;;;;;934083;149;27474;-80
2023/10/09 14:05:13;;;;;;;6.33;3.45;;;25.30;65.30;;;;;;949208;146;27284;-78
2023/10/09 14:07:40;;;;;;;6.58;3.67;;;25.20;65.20;;;;;;930914;149;27375;-81
2023/10/09 14:10:17;;;;;;;5.40;3.40;;;25.20;65.40;;;;;;943696;149;27375;-82
2023/10/09 14:12:39;;;;;;;4.10;3.62;;;25.20;65.60;;;;;;942955;149;27374;-77
2023/10/09 14:15:03;;;;;;;4.55;3.08;;;25.20;65.80;;;;;;944414;149;27410;-76
2023/10/09 14:17:28;;;;;;;6.28;3.37;;;25.20;65.80;;;;;;944999;149;27416;-82
2023/10/09 14:19:55;;;;;;;6.22;3.35;;;25.20;65.70;;;;;;953257;147;27320;-83
2023/10/09 14:22:26;;;;;;;7.08;3.72;;;25.20;65.60;;;;;;943602;149;27303;-81
2023/10/09 14:24:55;;;;;;;6.08;3.50;;;25.20;65.60;;;;;;931988;149;27422;-75
2023/10/09 14:27:20;;;;;;;4.62;3.22;;;25.10;65.60;;;;;;934132;150;27470;-81
2023/10/09 14:29:46;;;;;;;7.83;3.65;;;25.10;65.50;;;;;;951910;147;27468;-75
2023/10/09 14:32:13;;;;;;;6.00;3.75;;;25.10;65.60;;;;;;950565;147;27328;-80
2023/10/09 14:34:46;;;;;;;4.75;3.35;;;25.10;65.60;;;;;;950310;147;27403;-82
2023/10/09 14:37:06;;;;;;;5.75;3.50;;;25.00;65.60;;;;;;948934;147;27421;-82
2023/10/09 14:39:36;;;;;;;9.38;3.58;;;25.00;65.70;;;;;;950194;147;27302;-83
2023/10/09 14:41:59;;;;;;;7.08;3.72;;;25.00;65.90;;;;;;950224;147;27433;-79
2023/10/09 14:44:27;;;;;;;8.30;3.80;;;25.00;66.20;;;;;;935805;149;27339;-81
2023/10/09 14:46:53;;;;;;;8.50;4.05;;;25.00;66.40;;;;;;934320;149;27361;-82
2023/10/09 14:49:21;;;;;;;5.90;3.37;;;24.90;66.40;;;;;;931127;150;27296;-79
2023/10/09 14:51:46;;;;;;;5.62;3.40;;;24.90;66.50;;;;;;932770;149;27343;-81
2023/10/09 14:54:15;;;;;;;7.08;3.45;;;24.90;66.50;;;;;;932363;150;27785;-81
2023/10/09 14:56:40;;;;;;;9.43;4.12;;;24.90;66.40;;;;;;952158;147;27402;-81
2023/10/09 14:59:06;;;;;;;5.87;3.30;;;24.80;66.20;;;;;;951768;147;27323;-82
2023/10/09 15:01:32;;;;;;;4.95;3.00;;;24.80;66.20;;;;;;948067;147;27310;-80
2023/10/09 15:04:03;;;;;;;5.78;3.42;;;24.80;66.20;;;;;;942030;148;27419;-81